sensor_id;sensor_type;location;lat;lon;timestamp;P1;durP1;ratioP1;P2;durP2;ratioP2
43670;SDS011;29267;50.906;7.248;2022-12-18T00:01:41;15.17;;;6.63;;
43670;SDS011;29267;50.906;7.248;2022-12-18T00:04:02;14.00;;;5.50;;
43670;SDS011;29267;50.906;7.248;2022-12-18T00:06:29;19.37;;;7.37;;
43670;SDS011;29267;50.906;7.248;2022-12-18T00:08:56;11.90;;;6.17;;
43670;SDS011;29267;50.906;7.248;2022-12-18T00:11:23;16.23;;;7.03;;
43670;SDS011;29267;50.906;7.248;2022-12-18T00:13:51;16.77;;;6.40;;
43670;SDS011;29267;50.906;7.248;2022-12-18T00:16:19;17.70;;;7.80;;
43670;SDS011;29267;50.906;7.248;2022-12-18T00:18:46;19.90;;;6.83;;
43670;SDS011;29267;50.906;7.248;2022-12-18T00:21:13;13.50;;;6.00;;
43670;SDS011;29267;50.906;7.248;2022-12-18T00:23:39;16.23;;;6.60;;
43670;SDS011;29267;50.906;7.248;2022-12-18T00:26:08;15.77;;;6.80;;
43670;SDS011;29267;50.906;7.248;2022-12-18T00:28:36;17.97;;;6.93;;
43670;SDS011;29267;50.906;7.248;2022-12-18T00:31:06;16.57;;;6.97;;
43670;SDS011;29267;50.906;7.248;2022-12-18T00:33:33;14.23;;;6.40;;
43670;SDS011;29267;50.906;7.248;2022-12-18T00:36:04;21.00;;;6.90;;
43670;SDS011;29267;50.906;7.248;2022-12-18T00:38:40;15.50;;;6.63;;
43670;SDS011;29267;50.906;7.248;2022-12-18T00:41:07;18.67;;;7.27;;
43670;SDS011;29267;50.906;7.248;2022-12-18T00:43:34;12.10;;;5.87;;
43670;SDS011;29267;50.906;7.248;2022-12-18T00:45:59;10.70;;;5.17;;
43670;SDS011;29267;50.906;7.248;2022-12-18T00:48:25;11.77;;;6.20;;
43670;SDS011;29267;50.906;7.248;2022-12-18T00:50:51;18.70;;;6.40;;
43670;SDS011;29267;50.906;7.248;2022-12-18T00:53:17;13.00;;;6.47;;
43670;SDS011;29267;50.906;7.248;2022-12-18T00:55:43;15.50;;;6.90;;
43670;SDS011;29267;50.906;7.248;2022-12-18T00:58:10;13.37;;;5.90;;
43670;SDS011;29267;50.906;7.248;2022-12-18T01:00:37;16.40;;;6.37;;
43670;SDS011;29267;50.906;7.248;2022-12-18T01:03:03;18.57;;;7.40;;
43670;SDS011;29267;50.906;7.248;2022-12-18T01:05:29;13.33;;;6.33;;
43670;SDS011;29267;50.906;7.248;2022-12-18T01:07:55;20.60;;;7.83;;
43670;SDS011;29267;50.906;7.248;2022-12-18T01:10:20;14.93;;;6.73;;
43670;SDS011;29267;50.906;7.248;2022-12-18T01:12:46;12.53;;;6.67;;
43670;SDS011;29267;50.906;7.248;2022-12-18T01:15:12;12.90;;;6.17;;
43670;SDS011;29267;50.906;7.248;2022-12-18T01:17:38;12.77;;;5.80;;
43670;SDS011;29267;50.906;7.248;2022-12-18T01:20:04;15.07;;;6.30;;
43670;SDS011;29267;50.906;7.248;2022-12-18T01:22:30;16.97;;;6.97;;
43670;SDS011;29267;50.906;7.248;2022-12-18T01:24:56;14.23;;;7.07;;
43670;SDS011;29267;50.906;7.248;2022-12-18T01:27:21;15.97;;;6.37;;
43670;SDS011;29267;50.906;7.248;2022-12-18T01:29:47;14.20;;;6.77;;
43670;SDS011;29267;50.906;7.248;2022-12-18T01:32:13;13.43;;;6.83;;
43670;SDS011;29267;50.906;7.248;2022-12-18T01:34:39;16.63;;;6.83;;
43670;SDS011;29267;50.906;7.248;2022-12-18T01:37:05;12.17;;;6.27;;
43670;SDS011;29267;50.906;7.248;2022-12-18T01:39:31;14.10;;;5.73;;
43670;SDS011;29267;50.906;7.248;2022-12-18T01:41:57;15.73;;;6.00;;
43670;SDS011;29267;50.906;7.248;2022-12-18T01:47:49;15.23;;;6.80;;
43670;SDS011;29267;50.906;7.248;2022-12-18T01:53:07;13.30;;;6.00;;
43670;SDS011;29267;50.906;7.248;2022-12-18T01:55:49;16.90;;;6.20;;
43670;SDS011;29267;50.906;7.248;2022-12-18T01:58:18;14.30;;;6.17;;
43670;SDS011;29267;50.906;7.248;2022-12-18T02:00:47;15.13;;;6.47;;
43670;SDS011;29267;50.906;7.248;2022-12-18T02:03:13;15.07;;;6.33;;
43670;SDS011;29267;50.906;7.248;2022-12-18T02:08:25;13.37;;;6.07;;
43670;SDS011;29267;50.906;7.248;2022-12-18T02:14:04;18.60;;;6.37;;
43670;SDS011;29267;50.906;7.248;2022-12-18T02:16:39;14.23;;;5.63;;
43670;SDS011;29267;50.906;7.248;2022-12-18T02:27:17;8.50;;;4.67;;
43670;SDS011;29267;50.906;7.248;2022-12-18T02:29:45;13.50;;;5.57;;
43670;SDS011;29267;50.906;7.248;2022-12-18T02:32:17;10.60;;;4.97;;
43670;SDS011;29267;50.906;7.248;2022-12-18T02:34:49;14.88;;;6.30;;
43670;SDS011;29267;50.906;7.248;2022-12-18T02:37:16;13.13;;;6.13;;
43670;SDS011;29267;50.906;7.248;2022-12-18T02:39:44;10.43;;;5.17;;
43670;SDS011;29267;50.906;7.248;2022-12-18T02:42:12;16.70;;;5.90;;
43670;SDS011;29267;50.906;7.248;2022-12-18T02:44:46;11.63;;;5.63;;
43670;SDS011;29267;50.906;7.248;2022-12-18T02:47:13;10.73;;;5.03;;
43670;SDS011;29267;50.906;7.248;2022-12-18T02:49:53;14.83;;;5.87;;
43670;SDS011;29267;50.906;7.248;2022-12-18T02:57:49;15.70;;;6.17;;
43670;SDS011;29267;50.906;7.248;2022-12-18T03:00:41;13.17;;;6.10;;
43670;SDS011;29267;50.906;7.248;2022-12-18T03:03:13;16.15;;;5.50;;
43670;SDS011;29267;50.906;7.248;2022-12-18T03:06:06;11.82;;;4.93;;
43670;SDS011;29267;50.906;7.248;2022-12-18T03:08:39;15.03;;;5.47;;
43670;SDS011;29267;50.906;7.248;2022-12-18T03:11:09;11.47;;;5.13;;
43670;SDS011;29267;50.906;7.248;2022-12-18T03:13:39;13.17;;;6.03;;
43670;SDS011;29267;50.906;7.248;2022-12-18T03:16:15;19.23;;;6.27;;
43670;SDS011;29267;50.906;7.248;2022-12-18T03:18:49;11.10;;;5.50;;
43670;SDS011;29267;50.906;7.248;2022-12-18T03:21:37;22.27;;;6.50;;
43670;SDS011;29267;50.906;7.248;2022-12-18T03:24:07;11.67;;;4.37;;
43670;SDS011;29267;50.906;7.248;2022-12-18T03:26:36;17.83;;;6.47;;
43670;SDS011;29267;50.906;7.248;2022-12-18T03:29:40;16.97;;;5.83;;
43670;SDS011;29267;50.906;7.248;2022-12-18T03:32:09;11.03;;;4.93;;
43670;SDS011;29267;50.906;7.248;2022-12-18T03:34:38;13.47;;;5.40;;
43670;SDS011;29267;50.906;7.248;2022-12-18T03:37:06;16.90;;;5.93;;
43670;SDS011;29267;50.906;7.248;2022-12-18T03:39:33;17.30;;;5.53;;
43670;SDS011;29267;50.906;7.248;2022-12-18T03:42:11;12.30;;;5.33;;
43670;SDS011;29267;50.906;7.248;2022-12-18T03:47:47;14.90;;;5.20;;
43670;SDS011;29267;50.906;7.248;2022-12-18T03:50:49;19.53;;;5.87;;
43670;SDS011;29267;50.906;7.248;2022-12-18T03:53:44;17.17;;;4.53;;
43670;SDS011;29267;50.906;7.248;2022-12-18T03:56:15;9.30;;;4.50;;
43670;SDS011;29267;50.906;7.248;2022-12-18T03:58:43;15.57;;;4.70;;
43670;SDS011;29267;50.906;7.248;2022-12-18T04:01:10;9.30;;;4.60;;
43670;SDS011;29267;50.906;7.248;2022-12-18T04:03:39;13.80;;;5.30;;
43670;SDS011;29267;50.906;7.248;2022-12-18T04:06:07;10.13;;;4.60;;
43670;SDS011;29267;50.906;7.248;2022-12-18T04:08:33;11.80;;;4.90;;
43670;SDS011;29267;50.906;7.248;2022-12-18T04:11:00;10.23;;;4.83;;
43670;SDS011;29267;50.906;7.248;2022-12-18T04:13:33;10.37;;;4.17;;
43670;SDS011;29267;50.906;7.248;2022-12-18T04:18:26;10.70;;;4.60;;
43670;SDS011;29267;50.906;7.248;2022-12-18T04:20:52;10.57;;;4.70;;
43670;SDS011;29267;50.906;7.248;2022-12-18T04:23:17;10.47;;;5.67;;
43670;SDS011;29267;50.906;7.248;2022-12-18T04:25:43;12.30;;;4.47;;
43670;SDS011;29267;50.906;7.248;2022-12-18T04:28:08;9.73;;;4.43;;
43670;SDS011;29267;50.906;7.248;2022-12-18T04:30:34;12.30;;;5.10;;
43670;SDS011;29267;50.906;7.248;2022-12-18T04:33:00;9.40;;;4.57;;
43670;SDS011;29267;50.906;7.248;2022-12-18T04:35:25;11.70;;;5.00;;
43670;SDS011;29267;50.906;7.248;2022-12-18T04:37:51;15.80;;;5.97;;
43670;SDS011;29267;50.906;7.248;2022-12-18T04:40:16;10.20;;;4.73;;
43670;SDS011;29267;50.906;7.248;2022-12-18T04:42:42;13.60;;;5.97;;
43670;SDS011;29267;50.906;7.248;2022-12-18T04:45:08;12.87;;;4.67;;
43670;SDS011;29267;50.906;7.248;2022-12-18T04:47:34;9.23;;;4.67;;
43670;SDS011;29267;50.906;7.248;2022-12-18T04:49:59;12.03;;;5.07;;
43670;SDS011;29267;50.906;7.248;2022-12-18T04:52:25;11.03;;;5.30;;
43670;SDS011;29267;50.906;7.248;2022-12-18T04:54:50;10.43;;;5.03;;
43670;SDS011;29267;50.906;7.248;2022-12-18T04:57:16;12.90;;;5.70;;
43670;SDS011;29267;50.906;7.248;2022-12-18T04:59:43;11.57;;;5.77;;
43670;SDS011;29267;50.906;7.248;2022-12-18T05:02:09;12.17;;;5.50;;
43670;SDS011;29267;50.906;7.248;2022-12-18T05:04:34;12.43;;;5.57;;
43670;SDS011;29267;50.906;7.248;2022-12-18T05:07:00;12.70;;;5.40;;
43670;SDS011;29267;50.906;7.248;2022-12-18T05:09:26;18.07;;;6.47;;
43670;SDS011;29267;50.906;7.248;2022-12-18T05:11:51;14.27;;;5.40;;
43670;SDS011;29267;50.906;7.248;2022-12-18T05:14:17;14.37;;;5.47;;
43670;SDS011;29267;50.906;7.248;2022-12-18T05:16:42;13.33;;;5.77;;
43670;SDS011;29267;50.906;7.248;2022-12-18T05:19:08;15.20;;;6.20;;
43670;SDS011;29267;50.906;7.248;2022-12-18T05:21:34;15.20;;;6.80;;
43670;SDS011;29267;50.906;7.248;2022-12-18T05:23:59;10.87;;;5.67;;
43670;SDS011;29267;50.906;7.248;2022-12-18T05:26:25;16.00;;;5.77;;
43670;SDS011;29267;50.906;7.248;2022-12-18T05:28:50;15.10;;;6.27;;
43670;SDS011;29267;50.906;7.248;2022-12-18T05:31:16;14.03;;;5.67;;
43670;SDS011;29267;50.906;7.248;2022-12-18T05:33:41;18.23;;;6.10;;
43670;SDS011;29267;50.906;7.248;2022-12-18T05:36:07;18.70;;;6.20;;
43670;SDS011;29267;50.906;7.248;2022-12-18T05:38:35;15.73;;;5.93;;
43670;SDS011;29267;50.906;7.248;2022-12-18T05:41:01;17.90;;;6.60;;
43670;SDS011;29267;50.906;7.248;2022-12-18T05:43:27;14.83;;;6.03;;
43670;SDS011;29267;50.906;7.248;2022-12-18T05:45:53;15.23;;;7.03;;
43670;SDS011;29267;50.906;7.248;2022-12-18T05:48:19;16.73;;;6.83;;
43670;SDS011;29267;50.906;7.248;2022-12-18T05:50:46;15.20;;;6.63;;
43670;SDS011;29267;50.906;7.248;2022-12-18T05:53:14;15.63;;;6.67;;
43670;SDS011;29267;50.906;7.248;2022-12-18T05:55:41;15.70;;;6.73;;
43670;SDS011;29267;50.906;7.248;2022-12-18T05:58:09;15.87;;;6.47;;
43670;SDS011;29267;50.906;7.248;2022-12-18T06:00:36;16.37;;;6.10;;
43670;SDS011;29267;50.906;7.248;2022-12-18T06:03:09;14.63;;;6.10;;
43670;SDS011;29267;50.906;7.248;2022-12-18T06:05:36;18.53;;;5.97;;
43670;SDS011;29267;50.906;7.248;2022-12-18T06:08:04;14.33;;;6.47;;
43670;SDS011;29267;50.906;7.248;2022-12-18T06:10:30;14.30;;;6.03;;
43670;SDS011;29267;50.906;7.248;2022-12-18T06:12:55;13.27;;;6.57;;
43670;SDS011;29267;50.906;7.248;2022-12-18T06:15:21;15.63;;;6.63;;
43670;SDS011;29267;50.906;7.248;2022-12-18T06:17:46;17.30;;;6.30;;
43670;SDS011;29267;50.906;7.248;2022-12-18T06:20:12;18.47;;;6.80;;
43670;SDS011;29267;50.906;7.248;2022-12-18T06:22:38;16.10;;;6.83;;
43670;SDS011;29267;50.906;7.248;2022-12-18T06:25:04;14.30;;;6.17;;
43670;SDS011;29267;50.906;7.248;2022-12-18T06:27:30;14.60;;;6.83;;
43670;SDS011;29267;50.906;7.248;2022-12-18T06:29:58;18.17;;;6.53;;
43670;SDS011;29267;50.906;7.248;2022-12-18T06:32:24;15.53;;;7.27;;
43670;SDS011;29267;50.906;7.248;2022-12-18T06:34:50;18.93;;;7.57;;
43670;SDS011;29267;50.906;7.248;2022-12-18T06:37:15;19.07;;;6.87;;
43670;SDS011;29267;50.906;7.248;2022-12-18T06:39:41;14.10;;;6.53;;
43670;SDS011;29267;50.906;7.248;2022-12-18T06:42:06;18.43;;;7.80;;
43670;SDS011;29267;50.906;7.248;2022-12-18T06:44:32;13.53;;;6.43;;
43670;SDS011;29267;50.906;7.248;2022-12-18T06:46:57;18.37;;;7.30;;
43670;SDS011;29267;50.906;7.248;2022-12-18T06:49:23;17.33;;;6.90;;
43670;SDS011;29267;50.906;7.248;2022-12-18T06:51:49;16.23;;;7.03;;
43670;SDS011;29267;50.906;7.248;2022-12-18T06:54:14;14.87;;;6.43;;
43670;SDS011;29267;50.906;7.248;2022-12-18T06:56:40;15.37;;;6.93;;
43670;SDS011;29267;50.906;7.248;2022-12-18T06:59:05;16.53;;;6.70;;
43670;SDS011;29267;50.906;7.248;2022-12-18T07:01:31;14.73;;;7.10;;
43670;SDS011;29267;50.906;7.248;2022-12-18T07:03:57;17.50;;;7.23;;
43670;SDS011;29267;50.906;7.248;2022-12-18T07:06:23;16.17;;;6.80;;
43670;SDS011;29267;50.906;7.248;2022-12-18T07:08:50;16.83;;;6.27;;
43670;SDS011;29267;50.906;7.248;2022-12-18T07:11:18;16.70;;;7.13;;
43670;SDS011;29267;50.906;7.248;2022-12-18T07:13:44;21.03;;;6.47;;
43670;SDS011;29267;50.906;7.248;2022-12-18T07:16:17;17.87;;;7.40;;
43670;SDS011;29267;50.906;7.248;2022-12-18T07:18:44;15.25;;;6.97;;
43670;SDS011;29267;50.906;7.248;2022-12-18T07:21:11;17.67;;;6.83;;
43670;SDS011;29267;50.906;7.248;2022-12-18T07:23:38;15.37;;;6.20;;
43670;SDS011;29267;50.906;7.248;2022-12-18T07:26:05;14.70;;;6.90;;
43670;SDS011;29267;50.906;7.248;2022-12-18T07:28:32;18.40;;;6.67;;
43670;SDS011;29267;50.906;7.248;2022-12-18T07:31:02;18.23;;;6.70;;
43670;SDS011;29267;50.906;7.248;2022-12-18T07:33:28;16.10;;;6.47;;
43670;SDS011;29267;50.906;7.248;2022-12-18T07:35:54;19.70;;;7.10;;
43670;SDS011;29267;50.906;7.248;2022-12-18T07:38:20;21.33;;;7.07;;
43670;SDS011;29267;50.906;7.248;2022-12-18T07:40:46;15.17;;;7.20;;
43670;SDS011;29267;50.906;7.248;2022-12-18T07:43:11;14.87;;;7.13;;
43670;SDS011;29267;50.906;7.248;2022-12-18T07:45:37;16.13;;;6.77;;
43670;SDS011;29267;50.906;7.248;2022-12-18T07:48:03;19.53;;;6.87;;
43670;SDS011;29267;50.906;7.248;2022-12-18T07:50:29;19.37;;;7.73;;
43670;SDS011;29267;50.906;7.248;2022-12-18T07:52:54;16.10;;;7.47;;
43670;SDS011;29267;50.906;7.248;2022-12-18T07:55:20;21.10;;;7.40;;
43670;SDS011;29267;50.906;7.248;2022-12-18T07:57:45;15.77;;;6.53;;
43670;SDS011;29267;50.906;7.248;2022-12-18T08:00:11;16.97;;;7.63;;
43670;SDS011;29267;50.906;7.248;2022-12-18T08:02:37;17.27;;;7.40;;
43670;SDS011;29267;50.906;7.248;2022-12-18T08:05:03;18.77;;;6.77;;
43670;SDS011;29267;50.906;7.248;2022-12-18T08:07:29;16.47;;;6.97;;
43670;SDS011;29267;50.906;7.248;2022-12-18T08:09:54;19.47;;;7.53;;
43670;SDS011;29267;50.906;7.248;2022-12-18T08:12:20;14.77;;;6.07;;
43670;SDS011;29267;50.906;7.248;2022-12-18T08:14:45;17.90;;;7.87;;
43670;SDS011;29267;50.906;7.248;2022-12-18T08:17:11;11.90;;;6.10;;
43670;SDS011;29267;50.906;7.248;2022-12-18T08:19:37;17.37;;;7.40;;
43670;SDS011;29267;50.906;7.248;2022-12-18T08:22:02;17.17;;;7.17;;
43670;SDS011;29267;50.906;7.248;2022-12-18T08:24:28;14.57;;;6.47;;
43670;SDS011;29267;50.906;7.248;2022-12-18T08:26:53;15.77;;;6.70;;
43670;SDS011;29267;50.906;7.248;2022-12-18T08:29:19;12.03;;;5.57;;
43670;SDS011;29267;50.906;7.248;2022-12-18T08:31:45;15.57;;;7.00;;
43670;SDS011;29267;50.906;7.248;2022-12-18T08:34:10;17.07;;;7.03;;
43670;SDS011;29267;50.906;7.248;2022-12-18T08:36:36;18.30;;;6.77;;
43670;SDS011;29267;50.906;7.248;2022-12-18T08:39:02;13.50;;;6.50;;
43670;SDS011;29267;50.906;7.248;2022-12-18T08:41:27;13.60;;;5.77;;
43670;SDS011;29267;50.906;7.248;2022-12-18T08:43:53;17.97;;;7.17;;
43670;SDS011;29267;50.906;7.248;2022-12-18T08:46:38;14.23;;;6.60;;
43670;SDS011;29267;50.906;7.248;2022-12-18T08:49:06;13.83;;;6.80;;
43670;SDS011;29267;50.906;7.248;2022-12-18T08:51:33;16.10;;;6.60;;
43670;SDS011;29267;50.906;7.248;2022-12-18T08:53:59;23.20;;;7.57;;
43670;SDS011;29267;50.906;7.248;2022-12-18T08:56:25;13.60;;;5.57;;
43670;SDS011;29267;50.906;7.248;2022-12-18T08:58:51;17.60;;;7.60;;
43670;SDS011;29267;50.906;7.248;2022-12-18T09:01:18;19.03;;;6.83;;
43670;SDS011;29267;50.906;7.248;2022-12-18T09:03:43;16.10;;;6.33;;
43670;SDS011;29267;50.906;7.248;2022-12-18T09:06:09;16.33;;;6.20;;
43670;SDS011;29267;50.906;7.248;2022-12-18T09:08:40;12.50;;;5.87;;
43670;SDS011;29267;50.906;7.248;2022-12-18T09:11:10;14.37;;;6.23;;
43670;SDS011;29267;50.906;7.248;2022-12-18T09:13:47;13.83;;;6.03;;
43670;SDS011;29267;50.906;7.248;2022-12-18T09:16:13;20.03;;;6.70;;
43670;SDS011;29267;50.906;7.248;2022-12-18T09:18:39;17.80;;;7.00;;
43670;SDS011;29267;50.906;7.248;2022-12-18T09:21:08;15.27;;;7.73;;
43670;SDS011;29267;50.906;7.248;2022-12-18T09:23:35;17.13;;;6.93;;
43670;SDS011;29267;50.906;7.248;2022-12-18T09:26:01;15.83;;;6.53;;
43670;SDS011;29267;50.906;7.248;2022-12-18T09:28:27;13.70;;;6.53;;
43670;SDS011;29267;50.906;7.248;2022-12-18T09:30:53;17.17;;;6.43;;
43670;SDS011;29267;50.906;7.248;2022-12-18T09:33:19;15.03;;;6.80;;
43670;SDS011;29267;50.906;7.248;2022-12-18T09:35:44;15.47;;;6.60;;
43670;SDS011;29267;50.906;7.248;2022-12-18T09:38:14;12.20;;;6.07;;
43670;SDS011;29267;50.906;7.248;2022-12-18T09:40:44;13.30;;;5.93;;
43670;SDS011;29267;50.906;7.248;2022-12-18T09:43:15;14.03;;;6.77;;
43670;SDS011;29267;50.906;7.248;2022-12-18T09:45:44;12.80;;;6.20;;
43670;SDS011;29267;50.906;7.248;2022-12-18T09:48:25;18.17;;;7.30;;
43670;SDS011;29267;50.906;7.248;2022-12-18T09:50:57;13.53;;;5.77;;
43670;SDS011;29267;50.906;7.248;2022-12-18T09:53:28;14.17;;;6.17;;
43670;SDS011;29267;50.906;7.248;2022-12-18T09:55:56;13.70;;;6.10;;
43670;SDS011;29267;50.906;7.248;2022-12-18T10:01:09;15.07;;;6.93;;
43670;SDS011;29267;50.906;7.248;2022-12-18T10:03:37;16.90;;;6.70;;
43670;SDS011;29267;50.906;7.248;2022-12-18T10:08:49;13.30;;;5.40;;
43670;SDS011;29267;50.906;7.248;2022-12-18T10:17:10;18.80;;;6.33;;
43670;SDS011;29267;50.906;7.248;2022-12-18T10:22:10;15.23;;;5.63;;
43670;SDS011;29267;50.906;7.248;2022-12-18T10:24:55;14.53;;;6.60;;
43670;SDS011;29267;50.906;7.248;2022-12-18T10:27:39;15.33;;;6.90;;
43670;SDS011;29267;50.906;7.248;2022-12-18T10:30:15;12.07;;;6.07;;
43670;SDS011;29267;50.906;7.248;2022-12-18T10:32:42;11.07;;;5.43;;
43670;SDS011;29267;50.906;7.248;2022-12-18T10:35:13;13.33;;;5.80;;
43670;SDS011;29267;50.906;7.248;2022-12-18T10:41:04;16.80;;;6.33;;
43670;SDS011;29267;50.906;7.248;2022-12-18T10:44:09;12.73;;;5.35;;
43670;SDS011;29267;50.906;7.248;2022-12-18T10:46:46;13.90;;;6.03;;
43670;SDS011;29267;50.906;7.248;2022-12-18T10:49:18;14.55;;;5.50;;
43670;SDS011;29267;50.906;7.248;2022-12-18T10:51:50;20.08;;;6.13;;
43670;SDS011;29267;50.906;7.248;2022-12-18T10:54:18;10.88;;;5.63;;
43670;SDS011;29267;50.906;7.248;2022-12-18T10:56:47;16.85;;;6.03;;
43670;SDS011;29267;50.906;7.248;2022-12-18T10:59:14;14.13;;;5.70;;
43670;SDS011;29267;50.906;7.248;2022-12-18T11:01:52;17.00;;;6.82;;
43670;SDS011;29267;50.906;7.248;2022-12-18T11:04:22;12.15;;;6.20;;
43670;SDS011;29267;50.906;7.248;2022-12-18T11:06:56;12.68;;;5.82;;
43670;SDS011;29267;50.906;7.248;2022-12-18T11:09:30;15.40;;;6.35;;
43670;SDS011;29267;50.906;7.248;2022-12-18T11:11:58;13.65;;;6.53;;
43670;SDS011;29267;50.906;7.248;2022-12-18T11:14:30;14.23;;;6.10;;
43670;SDS011;29267;50.906;7.248;2022-12-18T11:16:59;14.05;;;6.13;;
43670;SDS011;29267;50.906;7.248;2022-12-18T11:19:35;18.20;;;6.78;;
43670;SDS011;29267;50.906;7.248;2022-12-18T11:22:03;12.15;;;5.75;;
43670;SDS011;29267;50.906;7.248;2022-12-18T11:25:01;13.93;;;6.40;;
43670;SDS011;29267;50.906;7.248;2022-12-18T11:27:31;12.57;;;6.15;;
43670;SDS011;29267;50.906;7.248;2022-12-18T11:30:08;12.68;;;6.22;;
43670;SDS011;29267;50.906;7.248;2022-12-18T11:38:26;14.95;;;6.80;;
43670;SDS011;29267;50.906;7.248;2022-12-18T11:40:58;13.52;;;7.45;;
43670;SDS011;29267;50.906;7.248;2022-12-18T11:45:59;17.02;;;7.53;;
43670;SDS011;29267;50.906;7.248;2022-12-18T11:51:02;14.95;;;7.60;;
43670;SDS011;29267;50.906;7.248;2022-12-18T11:53:35;14.70;;;7.55;;
43670;SDS011;29267;50.906;7.248;2022-12-18T11:56:26;16.42;;;8.38;;
43670;SDS011;29267;50.906;7.248;2022-12-18T12:01:48;16.35;;;7.40;;
43670;SDS011;29267;50.906;7.248;2022-12-18T12:10:14;20.50;;;7.75;;
43670;SDS011;29267;50.906;7.248;2022-12-18T12:15:51;16.38;;;7.70;;
43670;SDS011;29267;50.906;7.248;2022-12-18T12:26:46;22.73;;;8.30;;
43670;SDS011;29267;50.906;7.248;2022-12-18T12:29:50;22.33;;;8.98;;
43670;SDS011;29267;50.906;7.248;2022-12-18T12:32:35;16.85;;;8.48;;
43670;SDS011;29267;50.906;7.248;2022-12-18T12:38:21;23.85;;;9.18;;
43670;SDS011;29267;50.906;7.248;2022-12-18T12:40:56;21.60;;;9.57;;
43670;SDS011;29267;50.906;7.248;2022-12-18T12:43:33;25.10;;;9.68;;
43670;SDS011;29267;50.906;7.248;2022-12-18T12:46:10;17.60;;;8.95;;
43670;SDS011;29267;50.906;7.248;2022-12-18T12:48:49;17.10;;;8.63;;
43670;SDS011;29267;50.906;7.248;2022-12-18T12:51:21;23.08;;;10.02;;
43670;SDS011;29267;50.906;7.248;2022-12-18T12:53:50;20.47;;;8.47;;
43670;SDS011;29267;50.906;7.248;2022-12-18T12:56:19;24.80;;;10.07;;
43670;SDS011;29267;50.906;7.248;2022-12-18T12:58:52;19.27;;;9.23;;
43670;SDS011;29267;50.906;7.248;2022-12-18T13:06:54;20.20;;;9.50;;
43670;SDS011;29267;50.906;7.248;2022-12-18T13:09:31;23.80;;;9.70;;
43670;SDS011;29267;50.906;7.248;2022-12-18T13:12:04;18.88;;;9.82;;
43670;SDS011;29267;50.906;7.248;2022-12-18T13:15:22;21.13;;;9.43;;
43670;SDS011;29267;50.906;7.248;2022-12-18T13:18:03;24.95;;;9.60;;
43670;SDS011;29267;50.906;7.248;2022-12-18T13:23:01;22.87;;;8.90;;
43670;SDS011;29267;50.906;7.248;2022-12-18T13:25:45;17.73;;;9.37;;
43670;SDS011;29267;50.906;7.248;2022-12-18T13:28:15;22.77;;;9.60;;
43670;SDS011;29267;50.906;7.248;2022-12-18T13:49:03;24.13;;;10.30;;
43670;SDS011;29267;50.906;7.248;2022-12-18T13:51:48;21.10;;;10.87;;
43670;SDS011;29267;50.906;7.248;2022-12-18T13:54:30;22.83;;;11.43;;
43670;SDS011;29267;50.906;7.248;2022-12-18T13:57:00;22.02;;;9.77;;
43670;SDS011;29267;50.906;7.248;2022-12-18T14:02:13;27.43;;;11.63;;
43670;SDS011;29267;50.906;7.248;2022-12-18T14:04:45;30.60;;;11.33;;
43670;SDS011;29267;50.906;7.248;2022-12-18T14:07:25;25.67;;;11.07;;
43670;SDS011;29267;50.906;7.248;2022-12-18T14:09:56;32.40;;;11.73;;
43670;SDS011;29267;50.906;7.248;2022-12-18T14:12:26;27.20;;;10.77;;
43670;SDS011;29267;50.906;7.248;2022-12-18T14:15:31;26.70;;;11.77;;
43670;SDS011;29267;50.906;7.248;2022-12-18T14:18:00;19.77;;;10.20;;
43670;SDS011;29267;50.906;7.248;2022-12-18T14:20:29;24.93;;;11.23;;
43670;SDS011;29267;50.906;7.248;2022-12-18T14:22:57;22.30;;;10.00;;
43670;SDS011;29267;50.906;7.248;2022-12-18T14:25:25;23.03;;;10.47;;
43670;SDS011;29267;50.906;7.248;2022-12-18T14:27:53;24.20;;;10.40;;
43670;SDS011;29267;50.906;7.248;2022-12-18T14:33:05;24.60;;;10.13;;
43670;SDS011;29267;50.906;7.248;2022-12-18T14:35:36;20.67;;;10.00;;
43670;SDS011;29267;50.906;7.248;2022-12-18T14:38:35;20.70;;;9.70;;
43670;SDS011;29267;50.906;7.248;2022-12-18T14:43:31;27.80;;;11.40;;
43670;SDS011;29267;50.906;7.248;2022-12-18T14:45:59;28.40;;;11.27;;
43670;SDS011;29267;50.906;7.248;2022-12-18T14:51:00;24.93;;;10.93;;
43670;SDS011;29267;50.906;7.248;2022-12-18T14:53:34;26.10;;;10.73;;
43670;SDS011;29267;50.906;7.248;2022-12-18T14:56:48;24.67;;;12.20;;
43670;SDS011;29267;50.906;7.248;2022-12-18T14:59:05;29.50;;;12.40;;
43670;SDS011;29267;50.906;7.248;2022-12-18T15:01:45;31.27;;;11.93;;
43670;SDS011;29267;50.906;7.248;2022-12-18T15:04:24;25.80;;;11.67;;
43670;SDS011;29267;50.906;7.248;2022-12-18T15:09:29;28.63;;;12.40;;
43670;SDS011;29267;50.906;7.248;2022-12-18T15:11:56;26.20;;;12.10;;
43670;SDS011;29267;50.906;7.248;2022-12-18T15:16:59;29.23;;;11.33;;
43670;SDS011;29267;50.906;7.248;2022-12-18T15:19:37;31.93;;;13.00;;
43670;SDS011;29267;50.906;7.248;2022-12-18T15:22:14;29.83;;;12.57;;
43670;SDS011;29267;50.906;7.248;2022-12-18T15:24:55;28.13;;;11.63;;
43670;SDS011;29267;50.906;7.248;2022-12-18T15:27:44;31.10;;;13.30;;
43670;SDS011;29267;50.906;7.248;2022-12-18T15:32:42;35.50;;;13.90;;
43670;SDS011;29267;50.906;7.248;2022-12-18T15:35:12;31.60;;;12.10;;
43670;SDS011;29267;50.906;7.248;2022-12-18T15:37:40;27.23;;;12.77;;
43670;SDS011;29267;50.906;7.248;2022-12-18T15:40:07;28.87;;;12.80;;
43670;SDS011;29267;50.906;7.248;2022-12-18T15:42:37;33.40;;;13.37;;
43670;SDS011;29267;50.906;7.248;2022-12-18T15:45:21;34.35;;;13.93;;
43670;SDS011;29267;50.906;7.248;2022-12-18T15:47:47;33.70;;;14.30;;
43670;SDS011;29267;50.906;7.248;2022-12-18T15:50:13;42.30;;;17.70;;
43670;SDS011;29267;50.906;7.248;2022-12-18T15:52:43;35.27;;;15.00;;
43670;SDS011;29267;50.906;7.248;2022-12-18T15:55:11;30.27;;;13.23;;
43670;SDS011;29267;50.906;7.248;2022-12-18T15:58:00;29.27;;;12.70;;
43670;SDS011;29267;50.906;7.248;2022-12-18T16:00:25;30.43;;;13.10;;
43670;SDS011;29267;50.906;7.248;2022-12-18T16:02:52;36.53;;;15.73;;
43670;SDS011;29267;50.906;7.248;2022-12-18T16:05:18;29.07;;;13.03;;
43670;SDS011;29267;50.906;7.248;2022-12-18T16:07:45;30.50;;;12.87;;
43670;SDS011;29267;50.906;7.248;2022-12-18T16:10:11;33.80;;;14.10;;
43670;SDS011;29267;50.906;7.248;2022-12-18T16:12:37;30.67;;;14.90;;
43670;SDS011;29267;50.906;7.248;2022-12-18T16:15:03;37.00;;;15.03;;
43670;SDS011;29267;50.906;7.248;2022-12-18T16:17:30;32.77;;;15.07;;
43670;SDS011;29267;50.906;7.248;2022-12-18T16:19:55;30.40;;;13.13;;
43670;SDS011;29267;50.906;7.248;2022-12-18T16:22:25;33.43;;;15.23;;
43670;SDS011;29267;50.906;7.248;2022-12-18T16:24:52;37.33;;;15.20;;
43670;SDS011;29267;50.906;7.248;2022-12-18T16:27:19;33.77;;;13.87;;
43670;SDS011;29267;50.906;7.248;2022-12-18T16:29:46;34.23;;;14.27;;
43670;SDS011;29267;50.906;7.248;2022-12-18T16:32:13;34.43;;;14.77;;
43670;SDS011;29267;50.906;7.248;2022-12-18T16:34:44;35.03;;;14.03;;
43670;SDS011;29267;50.906;7.248;2022-12-18T16:37:10;37.57;;;16.50;;
43670;SDS011;29267;50.906;7.248;2022-12-18T16:39:37;35.10;;;14.60;;
43670;SDS011;29267;50.906;7.248;2022-12-18T16:42:05;38.13;;;15.40;;
43670;SDS011;29267;50.906;7.248;2022-12-18T16:44:35;39.97;;;15.17;;
43670;SDS011;29267;50.906;7.248;2022-12-18T16:47:00;34.40;;;14.50;;
43670;SDS011;29267;50.906;7.248;2022-12-18T16:49:27;38.03;;;15.67;;
43670;SDS011;29267;50.906;7.248;2022-12-18T16:51:53;37.17;;;14.97;;
43670;SDS011;29267;50.906;7.248;2022-12-18T16:54:19;36.93;;;13.87;;
43670;SDS011;29267;50.906;7.248;2022-12-18T16:56:45;39.03;;;14.80;;